createdAt,value
2022-10-16T00:01:27.336Z,10.05
2022-10-16T00:06:32.475Z,9.85
2022-10-16T00:11:39.062Z,10.45
2022-10-16T00:16:45.034Z,10.57
2022-10-16T00:21:49.319Z,9.43
2022-10-16T00:27:12.290Z,8.90
2022-10-16T00:32:17.146Z,10.23
2022-10-16T00:37:21.137Z,9.50
2022-10-16T00:42:25.033Z,10.83
2022-10-16T00:47:35.176Z,10.77
2022-10-16T00:52:41.719Z,11.52
2022-10-16T00:57:47.092Z,11.70
2022-10-16T01:02:56.246Z,10.18
2022-10-16T01:08:07.825Z,10.60
2022-10-16T01:13:14.804Z,10.40
2022-10-16T01:18:28.691Z,9.65
2022-10-16T01:23:43.320Z,9.32
2022-10-16T01:28:56.009Z,8.55
2022-10-16T01:34:04.951Z,9.40
2022-10-16T01:39:13.770Z,9.90
2022-10-16T01:44:22.843Z,9.32
2022-10-16T01:49:30.810Z,10.35
2022-10-16T01:54:37.446Z,9.30
2022-10-16T01:59:47.148Z,9.48
2022-10-16T02:04:55.680Z,9.05
2022-10-16T02:09:59.883Z,8.98
2022-10-16T02:15:05.230Z,8.80
2022-10-16T02:20:09.898Z,9.57
2022-10-16T02:25:20.397Z,8.57
2022-10-16T02:30:30.278Z,9.52
2022-10-16T02:35:34.617Z,9.07
2022-10-16T02:40:39.440Z,8.82
2022-10-16T02:45:45.171Z,9.32
2022-10-16T02:50:49.231Z,9.40
2022-10-16T02:55:52.582Z,9.67
2022-10-16T03:00:58.283Z,8.52
2022-10-16T03:06:02.404Z,9.45
2022-10-16T03:11:06.528Z,9.77
2022-10-16T03:16:12.062Z,10.73
2022-10-16T03:21:18.527Z,11.88
2022-10-16T03:26:22.575Z,12.85
2022-10-16T03:31:28.081Z,12.07
2022-10-16T03:36:32.333Z,11.02
2022-10-16T03:41:36.408Z,10.02
2022-10-16T03:46:42.101Z,9.88
2022-10-16T03:51:46.185Z,9.27
2022-10-16T03:56:49.464Z,8.17
2022-10-16T04:01:54.895Z,8.10
2022-10-16T04:06:58.946Z,9.38
2022-10-16T04:12:02.920Z,8.47
2022-10-16T04:17:08.347Z,7.70
2022-10-16T04:22:11.623Z,9.10
2022-10-16T04:27:15.646Z,8.00
2022-10-16T04:32:20.342Z,9.10
2022-10-16T04:37:26.395Z,19.35
2022-10-16T04:42:29.955Z,25.02
2022-10-16T04:47:35.354Z,25.10
2022-10-16T04:52:38.726Z,15.70
2022-10-16T04:57:43.571Z,14.57
2022-10-16T05:07:52.500Z,12.50
2022-10-16T05:12:55.843Z,11.00
2022-10-16T05:18:01.349Z,11.07
2022-10-16T05:23:04.788Z,9.10
2022-10-16T05:28:08.848Z,8.45
2022-10-16T05:33:13.582Z,7.80
2022-10-16T05:38:17.979Z,7.45
2022-10-16T05:43:21.639Z,5.68
2022-10-16T05:48:27.731Z,6.43
2022-10-16T05:53:32.389Z,5.82
2022-10-16T05:58:38.019Z,6.47
2022-10-16T06:03:42.954Z,5.50
2022-10-16T06:08:48.284Z,5.20
2022-10-16T06:13:52.586Z,6.18
2022-10-16T06:18:59.146Z,6.50
2022-10-16T06:24:03.240Z,5.68
2022-10-16T06:29:07.839Z,5.60
2022-10-16T06:34:13.224Z,5.95
2022-10-16T06:39:17.292Z,5.75
2022-10-16T06:44:20.594Z,7.32
2022-10-16T06:49:26.103Z,6.78
2022-10-16T06:54:29.578Z,6.75
2022-10-16T06:59:33.595Z,6.30
2022-10-16T07:04:39.407Z,6.25
2022-10-16T07:09:43.803Z,5.95
2022-10-16T07:14:47.182Z,5.53
2022-10-16T07:19:54.951Z,5.43
2022-10-16T07:24:58.233Z,5.68
2022-10-16T07:30:05.229Z,5.10
2022-10-16T07:35:13.730Z,5.30
2022-10-16T07:40:17.931Z,5.65
2022-10-16T07:45:22.051Z,5.20
2022-10-16T07:50:27.475Z,5.05
2022-10-16T07:55:30.818Z,5.88
2022-10-16T08:00:35.137Z,5.90
2022-10-16T08:05:40.708Z,5.38
2022-10-16T08:10:44.979Z,4.82
2022-10-16T08:15:49.461Z,5.30
2022-10-16T08:21:00.298Z,4.50
2022-10-16T08:26:10.176Z,5.22
2022-10-16T08:36:24.236Z,4.70
2022-10-16T08:41:56.401Z,4.75
2022-10-16T08:47:11.466Z,4.82
2022-10-16T08:52:16.423Z,4.35
2022-10-16T08:57:24.592Z,4.50
2022-10-16T09:02:34.506Z,4.18
2022-10-16T09:07:50.040Z,4.07
2022-10-16T09:13:03.296Z,4.10
2022-10-16T09:18:15.940Z,3.80
2022-10-16T09:23:24.039Z,4.32
2022-10-16T09:28:28.332Z,3.83
2022-10-16T09:33:36.441Z,4.50
2022-10-16T09:38:42.003Z,4.20
2022-10-16T09:43:54.110Z,3.60
2022-10-16T09:48:59.949Z,2.92
2022-10-16T09:54:16.542Z,3.17
2022-10-16T09:59:22.893Z,3.30
2022-10-16T10:04:29.497Z,3.42
2022-10-16T10:09:40.555Z,3.03
2022-10-16T10:14:47.070Z,3.45
2022-10-16T10:19:54.306Z,3.60
2022-10-16T10:25:22.084Z,2.90
2022-10-16T10:30:30.457Z,3.33
2022-10-16T10:35:47.025Z,2.78
2022-10-16T10:41:00.231Z,3.47
2022-10-16T10:46:07.363Z,3.25
2022-10-16T10:51:16.654Z,3.20
2022-10-16T10:56:40.315Z,3.30
2022-10-16T11:01:53.301Z,3.60
2022-10-16T11:07:03.278Z,3.40
2022-10-16T11:12:17.286Z,3.28
2022-10-16T11:17:27.160Z,3.37
2022-10-16T11:22:36.824Z,3.50
2022-10-16T11:27:45.909Z,3.60
2022-10-16T11:33:03.005Z,3.47
2022-10-16T11:38:15.596Z,3.25
2022-10-16T11:43:31.178Z,3.50
2022-10-16T11:48:42.970Z,3.67
2022-10-16T11:53:53.275Z,3.55
2022-10-16T11:59:04.496Z,3.28
2022-10-16T12:04:21.217Z,3.58
2022-10-16T12:09:33.705Z,3.05
2022-10-16T12:15:11.435Z,3.10
2022-10-16T12:20:27.784Z,3.20
2022-10-16T12:25:34.444Z,3.05
2022-10-16T12:30:40.305Z,2.92
2022-10-16T12:35:47.664Z,3.20
2022-10-16T12:41:00.777Z,3.78
2022-10-16T12:46:23.393Z,3.50
2022-10-16T12:51:37.655Z,3.33
2022-10-16T12:56:55.909Z,3.20
2022-10-16T13:02:20.162Z,3.88
2022-10-16T13:07:40.283Z,3.35
2022-10-16T13:13:14.443Z,2.90
2022-10-16T13:18:25.749Z,3.10
2022-10-16T13:23:36.129Z,2.63
2022-10-16T13:28:42.055Z,3.40
2022-10-16T13:33:51.725Z,3.80
2022-10-16T13:39:14.827Z,3.30
2022-10-16T13:44:22.819Z,3.45
2022-10-16T13:49:28.482Z,3.30
2022-10-16T13:54:34.044Z,4.10
2022-10-16T13:59:40.819Z,4.10
2022-10-16T14:04:45.704Z,3.95
2022-10-16T14:09:53.078Z,4.13
2022-10-16T14:14:57.907Z,4.32
2022-10-16T14:25:28.502Z,4.53
2022-10-16T14:30:34.137Z,4.15
2022-10-16T14:35:42.911Z,4.07
2022-10-16T14:40:52.008Z,4.43
2022-10-16T14:45:59.825Z,4.78
2022-10-16T14:51:05.289Z,4.82
2022-10-16T14:56:09.957Z,5.78
2022-10-16T15:01:14.372Z,6.68
2022-10-16T15:06:19.999Z,8.35
2022-10-16T15:11:24.120Z,9.43
2022-10-16T15:16:28.278Z,9.17
2022-10-16T15:21:35.666Z,8.13
2022-10-16T15:26:40.028Z,8.50
2022-10-16T15:31:44.489Z,9.40
2022-10-16T15:36:50.289Z,9.52
2022-10-16T15:41:55.095Z,8.63
2022-10-16T15:47:00.505Z,9.30
2022-10-16T15:52:06.829Z,9.23
2022-10-16T15:57:10.287Z,9.25
2022-10-16T16:02:13.662Z,9.75
2022-10-16T16:07:19.544Z,9.82
2022-10-16T16:12:24.448Z,9.32
2022-10-16T16:17:28.764Z,7.97
2022-10-16T16:22:33.571Z,7.33
2022-10-16T16:32:43.767Z,7.03
2022-10-16T16:37:50.152Z,7.00
2022-10-16T16:42:53.822Z,7.70
2022-10-16T16:47:57.959Z,8.25
2022-10-16T16:53:03.432Z,7.65
2022-10-16T16:58:07.747Z,7.28
2022-10-16T17:03:11.705Z,6.80
2022-10-16T17:08:17.361Z,7.75
2022-10-16T17:13:20.866Z,6.78
2022-10-16T17:18:29.085Z,6.60
2022-10-16T17:23:34.678Z,6.43
2022-10-16T17:28:38.964Z,6.45
2022-10-16T17:33:42.384Z,6.75
2022-10-16T17:38:48.942Z,5.75
2022-10-16T17:43:53.374Z,6.22
2022-10-16T17:48:57.674Z,6.68
2022-10-16T17:54:02.933Z,5.95
2022-10-16T17:59:07.811Z,5.55
2022-10-16T18:09:22.621Z,5.55
2022-10-16T18:14:25.925Z,5.45
2022-10-16T18:19:29.910Z,5.85
2022-10-16T18:24:36.814Z,5.90
2022-10-16T18:29:40.840Z,5.18
2022-10-16T18:34:46.533Z,5.23
2022-10-16T18:39:52.596Z,4.80
2022-10-16T18:44:55.866Z,5.07
2022-10-16T18:50:00.204Z,4.97
2022-10-16T18:55:06.347Z,5.40
2022-10-16T19:00:11.763Z,4.93
2022-10-16T19:05:16.229Z,4.60
2022-10-16T19:10:21.796Z,4.28
2022-10-16T19:15:25.857Z,4.88
2022-10-16T19:20:30.618Z,5.37
2022-10-16T19:25:38.764Z,5.05
2022-10-16T19:30:47.023Z,5.18
2022-10-16T19:35:51.118Z,4.80
2022-10-16T19:40:56.642Z,4.70
2022-10-16T19:46:05.361Z,4.45
2022-10-16T19:51:12.910Z,5.55
2022-10-16T19:56:21.486Z,4.72
2022-10-16T20:01:27.586Z,5.18
2022-10-16T20:06:31.892Z,4.60
2022-10-16T20:11:38.449Z,4.55
2022-10-16T20:16:42.614Z,4.57
2022-10-16T20:21:46.735Z,4.23
2022-10-16T20:26:52.358Z,4.60
2022-10-16T20:31:56.697Z,4.80
2022-10-16T20:37:00.729Z,5.03
2022-10-16T20:42:06.265Z,4.77
2022-10-16T20:47:10.271Z,4.68
2022-10-16T20:52:13.691Z,4.63
2022-10-16T20:57:18.517Z,4.38
2022-10-16T21:07:27.204Z,4.35
2022-10-16T21:12:32.076Z,4.88
2022-10-16T21:17:36.181Z,3.95
2022-10-16T21:22:39.441Z,4.33
2022-10-16T21:27:45.007Z,4.05
2022-10-16T21:32:48.252Z,4.10
2022-10-16T21:37:52.333Z,3.90
2022-10-16T21:42:57.562Z,3.87
2022-10-16T21:48:02.006Z,3.83
2022-10-16T21:53:06.173Z,4.30
2022-10-16T21:58:11.646Z,4.20
2022-10-16T22:03:15.022Z,4.20
2022-10-16T22:08:19.067Z,3.55
2022-10-16T22:13:23.829Z,4.03
2022-10-16T22:18:27.944Z,3.83
2022-10-16T22:23:31.270Z,4.30
2022-10-16T22:28:37.590Z,3.85
2022-10-16T22:33:41.341Z,3.80
2022-10-16T22:38:45.408Z,3.40
2022-10-16T22:43:51.030Z,4.40
2022-10-16T22:48:56.212Z,3.50
2022-10-16T22:53:59.870Z,3.50
2022-10-16T22:59:05.556Z,3.60
2022-10-16T23:04:09.342Z,3.80
2022-10-16T23:09:13.583Z,3.50
2022-10-16T23:14:22.538Z,3.80
2022-10-16T23:19:26.636Z,3.58
2022-10-16T23:24:31.855Z,3.20
2022-10-16T23:29:37.721Z,3.50
2022-10-16T23:34:41.098Z,3.60
2022-10-16T23:39:45.102Z,3.67
2022-10-16T23:44:49.794Z,3.37
2022-10-16T23:49:54.056Z,3.38
2022-10-16T23:54:57.390Z,3.55
